createdAt,value
2023-02-24T00:01:37.313Z,26.20
2023-02-24T00:04:07.459Z,29.27
2023-02-24T00:06:38.822Z,22.05
2023-02-24T00:09:18.143Z,25.30
2023-02-24T00:11:46.325Z,25.27
2023-02-24T00:14:16.063Z,34.17
2023-02-24T00:16:45.152Z,24.15
2023-02-24T00:19:14.592Z,19.38
2023-02-24T00:21:42.167Z,27.05
2023-02-24T00:24:09.535Z,27.15
2023-02-24T00:26:36.794Z,20.25
2023-02-24T00:29:08.038Z,23.90
2023-02-24T00:31:39.581Z,29.55
2023-02-24T00:34:07.305Z,34.08
2023-02-24T00:36:34.995Z,25.48
2023-02-24T00:39:09.354Z,30.40
2023-02-24T00:41:40.979Z,26.98
2023-02-24T00:44:10.139Z,35.28
2023-02-24T00:46:39.002Z,27.02
2023-02-24T00:49:07.489Z,34.97
2023-02-24T00:51:39.310Z,33.83
2023-02-24T00:54:06.762Z,28.27
2023-02-24T00:56:34.693Z,26.90
2023-02-24T00:59:02.623Z,30.95
2023-02-24T01:01:33.700Z,28.88
2023-02-24T01:04:11.614Z,27.85
2023-02-24T01:06:43.537Z,25.00
2023-02-24T01:09:15.954Z,32.08
2023-02-24T01:12:03.211Z,27.95
2023-02-24T01:14:32.456Z,26.80
2023-02-24T01:17:00.301Z,20.85
2023-02-24T01:19:31.611Z,26.00
2023-02-24T01:22:01.169Z,31.02
2023-02-24T01:24:29.420Z,25.48
2023-02-24T01:26:57.249Z,22.05
2023-02-24T01:29:25.858Z,39.70
2023-02-24T01:31:59.149Z,34.80
2023-02-24T01:34:27.886Z,26.13
2023-02-24T01:36:55.341Z,27.98
2023-02-24T01:39:22.660Z,26.42
2023-02-24T01:41:53.025Z,39.33
2023-02-24T01:44:23.996Z,28.95
2023-02-24T01:46:54.703Z,22.15
2023-02-24T01:49:25.302Z,24.63
2023-02-24T01:51:52.569Z,34.20
2023-02-24T01:54:22.153Z,25.30
2023-02-24T01:56:51.728Z,33.28
2023-02-24T01:59:19.983Z,22.30
2023-02-24T02:01:48.158Z,25.60
2023-02-24T02:04:38.796Z,49.08
2023-02-24T02:07:10.111Z,26.95
2023-02-24T02:09:38.070Z,32.05
2023-02-24T02:12:05.527Z,29.92
2023-02-24T02:14:32.869Z,26.90
2023-02-24T02:17:29.555Z,22.38
2023-02-24T02:20:16.100Z,24.42
2023-02-24T02:23:02.288Z,20.00
2023-02-24T02:25:32.600Z,14.73
2023-02-24T02:28:12.051Z,25.08
2023-02-24T02:30:58.154Z,16.33
2023-02-24T02:33:28.407Z,20.73
2023-02-24T02:36:07.059Z,15.52
2023-02-24T02:38:54.561Z,18.73
2023-02-24T02:41:25.181Z,12.95
2023-02-24T02:43:58.965Z,26.05
2023-02-24T02:46:34.885Z,17.45
2023-02-24T02:49:08.987Z,10.85
2023-02-24T02:51:56.974Z,16.80
2023-02-24T02:54:34.765Z,16.83
2023-02-24T02:57:01.907Z,13.45
2023-02-24T02:59:30.494Z,20.40
2023-02-24T03:02:11.763Z,11.50
2023-02-24T03:04:44.026Z,15.43
2023-02-24T03:07:11.898Z,17.40
2023-02-24T03:09:42.679Z,13.38
2023-02-24T03:12:15.887Z,17.95
2023-02-24T03:17:17.363Z,16.05
2023-02-24T03:19:46.268Z,14.48
2023-02-24T03:22:19.988Z,11.90
2023-02-24T03:24:47.350Z,16.02
2023-02-24T03:27:20.739Z,9.13
2023-02-24T03:29:51.205Z,23.88
2023-02-24T03:32:33.346Z,16.75
2023-02-24T03:35:04.339Z,16.83
2023-02-24T03:37:33.624Z,10.20
2023-02-24T03:40:11.617Z,10.23
2023-02-24T03:42:40.754Z,10.95
2023-02-24T03:45:08.221Z,20.23
2023-02-24T03:47:35.769Z,11.95
2023-02-24T03:50:03.017Z,13.18
2023-02-24T03:52:50.455Z,10.68
2023-02-24T03:55:21.883Z,10.63
2023-02-24T03:57:56.015Z,12.25
2023-02-24T04:00:35.208Z,16.45
2023-02-24T04:03:25.825Z,10.75
2023-02-24T04:06:06.800Z,13.85
2023-02-24T04:08:40.754Z,10.70
2023-02-24T04:11:15.128Z,12.40
2023-02-24T04:13:45.802Z,11.32
2023-02-24T04:16:18.348Z,11.55
2023-02-24T04:18:51.123Z,9.02
2023-02-24T04:21:20.224Z,12.23
2023-02-24T04:23:47.959Z,11.13
2023-02-24T04:26:16.986Z,8.25
2023-02-24T04:28:44.897Z,5.97
2023-02-24T04:31:17.435Z,12.82
2023-02-24T04:33:50.407Z,14.38
2023-02-24T04:36:18.613Z,6.13
2023-02-24T04:38:46.005Z,11.30
2023-02-24T04:41:21.463Z,9.60
2023-02-24T04:43:50.868Z,7.38
2023-02-24T04:46:19.288Z,8.63
2023-02-24T04:48:46.787Z,6.78
2023-02-24T04:51:14.029Z,14.05
2023-02-24T04:53:41.612Z,4.82
2023-02-24T04:56:09.489Z,7.75
2023-02-24T04:58:43.158Z,11.90
2023-02-24T05:01:11.091Z,16.40
2023-02-24T05:03:42.204Z,11.38
2023-02-24T05:06:14.179Z,16.80
2023-02-24T05:08:41.407Z,8.43
2023-02-24T05:11:15.958Z,13.23
2023-02-24T05:14:43.107Z,7.63
2023-02-24T05:17:12.942Z,8.48
2023-02-24T05:20:07.803Z,16.58
2023-02-24T05:22:35.232Z,6.22
2023-02-24T05:25:08.569Z,6.28
2023-02-24T05:27:40.079Z,7.82
2023-02-24T05:30:09.836Z,7.63
2023-02-24T05:32:37.502Z,8.18
2023-02-24T05:35:05.595Z,9.25
2023-02-24T05:37:34.104Z,9.35
2023-02-24T05:40:01.437Z,6.55
2023-02-24T05:42:34.977Z,5.68
2023-02-24T05:45:05.561Z,6.63
2023-02-24T05:47:32.888Z,11.15
2023-02-24T05:50:00.180Z,4.95
2023-02-24T05:52:27.578Z,9.35
2023-02-24T05:54:55.195Z,12.38
2023-02-24T05:57:24.995Z,12.88
2023-02-24T05:59:53.197Z,12.18
2023-02-24T06:02:27.815Z,5.65
2023-02-24T06:04:55.743Z,8.35
2023-02-24T06:07:34.300Z,11.77
2023-02-24T06:10:04.790Z,9.95
2023-02-24T06:12:33.822Z,10.63
2023-02-24T06:15:02.378Z,13.80
2023-02-24T06:17:29.924Z,9.65
2023-02-24T06:19:57.189Z,6.63
2023-02-24T06:22:25.862Z,12.07
2023-02-24T06:24:54.340Z,9.45
2023-02-24T06:27:21.854Z,11.40
2023-02-24T06:29:54.004Z,8.43
2023-02-24T06:32:26.246Z,9.73
2023-02-24T06:34:57.592Z,8.82
2023-02-24T06:37:24.990Z,6.85
2023-02-24T06:39:52.306Z,9.25
2023-02-24T06:42:19.928Z,13.05
2023-02-24T06:44:47.740Z,7.63
2023-02-24T06:47:17.973Z,9.52
2023-02-24T06:49:47.991Z,9.50
2023-02-24T06:52:18.913Z,12.77
2023-02-24T06:54:48.390Z,7.47
2023-02-24T06:57:15.578Z,6.07
2023-02-24T06:59:49.066Z,10.05
2023-02-24T07:02:17.633Z,9.63
2023-02-24T07:04:44.911Z,3.33
2023-02-24T07:07:14.421Z,4.72
2023-02-24T07:09:42.762Z,6.63
2023-02-24T07:12:12.681Z,7.80
2023-02-24T07:14:40.550Z,6.10
2023-02-24T07:17:08.820Z,7.82
2023-02-24T07:19:36.740Z,4.72
2023-02-24T07:22:04.177Z,7.82
2023-02-24T07:24:40.840Z,7.43
2023-02-24T07:27:09.524Z,7.53
2023-02-24T07:29:37.872Z,9.25
2023-02-24T07:32:06.835Z,7.50
2023-02-24T07:34:34.352Z,8.95
2023-02-24T07:37:08.453Z,10.77
2023-02-24T07:39:37.157Z,9.52
2023-02-24T07:42:04.925Z,6.82
2023-02-24T07:44:33.218Z,9.18
2023-02-24T07:47:00.630Z,4.85
2023-02-24T07:49:30.335Z,4.03
2023-02-24T07:51:58.262Z,6.55
2023-02-24T07:54:27.329Z,7.43
2023-02-24T07:56:57.754Z,8.80
2023-02-24T07:59:33.338Z,10.02
2023-02-24T08:02:05.656Z,10.10
2023-02-24T08:04:33.474Z,12.10
2023-02-24T08:07:03.684Z,4.65
2023-02-24T08:10:07.117Z,8.13
2023-02-24T08:12:35.402Z,11.82
2023-02-24T08:15:17.275Z,8.40
2023-02-24T08:17:47.583Z,7.97
2023-02-24T08:20:15.221Z,6.65
2023-02-24T08:22:44.453Z,9.18
2023-02-24T08:25:18.436Z,9.63
2023-02-24T08:28:06.052Z,8.70
2023-02-24T08:30:39.061Z,6.57
2023-02-24T08:33:17.053Z,5.03
2023-02-24T08:35:45.425Z,5.82
2023-02-24T08:38:18.536Z,8.23
2023-02-24T08:40:50.425Z,7.90
2023-02-24T08:43:33.159Z,8.38
2023-02-24T08:46:03.905Z,8.15
2023-02-24T08:48:37.490Z,13.25
2023-02-24T08:51:16.094Z,14.80
2023-02-24T08:53:43.654Z,7.78
2023-02-24T08:56:12.802Z,6.25
2023-02-24T08:58:46.560Z,10.57
2023-02-24T09:01:24.686Z,9.43
2023-02-24T09:03:54.745Z,10.02
2023-02-24T09:06:27.190Z,7.45
2023-02-24T09:09:14.470Z,10.35
2023-02-24T09:11:44.259Z,4.78
2023-02-24T09:14:30.942Z,7.85
2023-02-24T09:17:02.876Z,8.15
2023-02-24T09:19:57.298Z,14.80
2023-02-24T09:22:32.400Z,9.55
2023-02-24T09:25:19.532Z,9.40
2023-02-24T09:28:08.363Z,9.43
2023-02-24T09:30:51.622Z,8.40
2023-02-24T09:33:39.508Z,12.10
2023-02-24T09:36:50.851Z,10.55
2023-02-24T09:39:25.366Z,6.28
2023-02-24T09:41:54.317Z,7.78
2023-02-24T10:01:07.155Z,7.53
2023-02-24T10:04:21.153Z,10.60
2023-02-24T10:24:08.665Z,11.20
2023-02-24T11:40:32.920Z,17.95
2023-02-24T11:43:08.452Z,20.15
2023-02-24T11:51:48.897Z,19.17
2023-02-24T11:54:47.411Z,23.85
2023-02-24T11:57:44.562Z,19.40
2023-02-24T12:00:34.110Z,21.17
2023-02-24T12:03:44.865Z,19.70
2023-02-24T12:06:32.466Z,21.52
2023-02-24T12:09:08.041Z,18.13
2023-02-24T12:11:49.332Z,23.10
2023-02-24T12:21:24.297Z,21.52
2023-02-24T12:23:55.605Z,20.98
2023-02-24T12:29:53.898Z,18.30
2023-02-24T12:33:47.646Z,16.65
2023-02-24T12:35:54.554Z,19.05
2023-02-24T12:38:43.213Z,18.08
2023-02-24T12:41:16.709Z,18.42
2023-02-24T12:43:52.489Z,13.32
2023-02-24T12:46:28.952Z,14.27
2023-02-24T12:49:02.452Z,15.38
2023-02-24T12:51:48.587Z,15.38
2023-02-24T12:54:15.791Z,15.15
2023-02-24T12:56:43.524Z,15.45
2023-02-24T12:59:22.009Z,15.95
2023-02-24T13:02:13.393Z,16.10
2023-02-24T13:04:50.136Z,18.63
2023-02-24T13:11:20.790Z,15.48
2023-02-24T13:14:29.176Z,13.88
2023-02-24T13:20:28.012Z,14.48
2023-02-24T13:56:12.633Z,15.13
2023-02-24T13:59:33.069Z,9.43
2023-02-24T14:06:21.815Z,11.23
2023-02-24T14:08:57.970Z,14.80
2023-02-24T14:14:44.417Z,12.38
2023-02-24T14:17:29.071Z,16.08
2023-02-24T14:19:57.210Z,13.77
2023-02-24T14:22:26.024Z,17.00
2023-02-24T14:25:02.952Z,19.95
2023-02-24T14:27:35.144Z,16.60
2023-02-24T14:30:02.886Z,18.55
2023-02-24T14:32:30.274Z,17.75
2023-02-24T14:34:57.738Z,15.88
2023-02-24T14:37:29.933Z,22.52
2023-02-24T14:39:58.477Z,16.65
2023-02-24T14:46:06.714Z,17.15
2023-02-24T14:59:24.891Z,21.08
2023-02-24T15:02:34.135Z,24.95
2023-02-24T15:05:36.146Z,24.58
2023-02-24T15:11:34.321Z,26.77
2023-02-24T15:14:06.477Z,21.05
2023-02-24T15:19:38.474Z,26.08
2023-02-24T15:22:30.934Z,19.95
2023-02-24T15:41:07.011Z,32.53
2023-02-24T15:43:54.782Z,23.08
2023-02-24T15:46:35.928Z,22.25
2023-02-24T15:49:05.026Z,19.45
2023-02-24T15:52:00.649Z,21.80
2023-02-24T15:57:38.281Z,23.50
2023-02-24T16:00:15.138Z,21.25
2023-02-24T16:02:42.756Z,22.70
2023-02-24T16:05:17.231Z,23.38
2023-02-24T16:08:00.945Z,21.33
2023-02-24T16:10:31.786Z,21.40
2023-02-24T16:13:04.148Z,19.95
2023-02-24T16:15:33.043Z,19.27
2023-02-24T16:18:26.346Z,19.02
2023-02-24T16:21:02.482Z,18.58
2023-02-24T16:23:50.018Z,17.50
2023-02-24T16:26:31.497Z,16.73
2023-02-24T16:29:26.750Z,15.60
2023-02-24T16:32:02.636Z,17.17
2023-02-24T16:34:30.348Z,17.85
2023-02-24T16:37:27.678Z,18.50
2023-02-24T16:51:26.974Z,25.08
2023-02-24T16:54:21.642Z,23.90
2023-02-24T17:05:48.299Z,38.17
2023-02-24T17:08:15.958Z,34.37
2023-02-24T17:11:17.738Z,41.72
2023-02-24T17:14:02.982Z,32.97
2023-02-24T17:16:31.532Z,29.58
2023-02-24T17:19:11.643Z,40.53
2023-02-24T17:21:42.924Z,40.35
2023-02-24T17:24:26.030Z,40.55
2023-02-24T17:30:17.106Z,34.78
2023-02-24T17:32:44.718Z,35.28
2023-02-24T17:35:24.480Z,30.38
2023-02-24T17:38:03.432Z,30.27
2023-02-24T17:40:30.784Z,21.27
2023-02-24T17:42:58.326Z,28.23
2023-02-24T17:45:32.457Z,21.10
2023-02-24T17:48:00.199Z,18.83
2023-02-24T17:50:31.124Z,23.60
2023-02-24T17:53:26.067Z,20.23
2023-02-24T17:56:03.188Z,15.45
2023-02-24T17:58:31.570Z,12.82
2023-02-24T18:01:19.173Z,9.63
2023-02-24T18:03:46.578Z,8.73
2023-02-24T18:06:22.019Z,11.50
2023-02-24T18:08:49.643Z,6.32
2023-02-24T18:11:21.912Z,7.65
2023-02-24T18:13:52.949Z,7.40
2023-02-24T18:16:20.962Z,10.63
2023-02-24T18:18:48.532Z,8.27
2023-02-24T18:21:16.104Z,12.43
2023-02-24T18:23:43.419Z,11.18
2023-02-24T18:26:11.887Z,8.02
2023-02-24T18:28:39.714Z,7.68
2023-02-24T18:31:11.531Z,10.30
2023-02-24T18:33:39.181Z,10.82
2023-02-24T18:36:07.068Z,13.57
2023-02-24T18:38:39.926Z,15.63
2023-02-24T18:41:20.823Z,10.98
2023-02-24T18:43:52.758Z,10.32
2023-02-24T18:46:20.877Z,14.32
2023-02-24T18:48:50.556Z,11.15
2023-02-24T18:51:22.377Z,18.20
2023-02-24T18:53:52.616Z,23.38
2023-02-24T18:56:23.804Z,16.52
2023-02-24T18:58:53.924Z,14.68
2023-02-24T19:01:22.699Z,15.93
2023-02-24T19:03:51.121Z,14.95
2023-02-24T19:06:19.565Z,23.27
2023-02-24T19:08:47.332Z,18.40
2023-02-24T19:11:18.503Z,22.35
2023-02-24T19:13:48.958Z,20.15
2023-02-24T19:16:17.633Z,13.57
2023-02-24T19:18:45.524Z,15.75
2023-02-24T19:21:13.202Z,17.42
2023-02-24T19:23:40.566Z,14.88
2023-02-24T19:26:15.355Z,16.98
2023-02-24T19:28:42.685Z,13.98
2023-02-24T19:31:17.721Z,11.40
2023-02-24T19:33:45.153Z,22.88
2023-02-24T19:36:36.315Z,15.50
2023-02-24T19:39:04.266Z,17.20
2023-02-24T19:41:31.963Z,14.73
2023-02-24T19:43:59.405Z,18.33
2023-02-24T19:46:27.093Z,20.33
2023-02-24T19:48:56.982Z,15.23
2023-02-24T19:51:24.843Z,19.60
2023-02-24T19:53:56.151Z,9.20
2023-02-24T19:56:31.795Z,18.85
2023-02-24T19:59:00.190Z,20.10
2023-02-24T20:01:28.281Z,22.00
2023-02-24T20:03:56.755Z,18.80
2023-02-24T20:06:28.095Z,19.60
2023-02-24T20:08:56.328Z,15.38
2023-02-24T20:11:24.491Z,18.38
2023-02-24T20:13:52.618Z,16.20
2023-02-24T20:16:21.377Z,21.85
2023-02-24T20:18:48.866Z,22.00
2023-02-24T20:21:16.207Z,17.98
2023-02-24T20:23:43.784Z,16.90
2023-02-24T20:26:14.050Z,14.77
2023-02-24T20:28:41.421Z,17.85
2023-02-24T20:31:10.125Z,18.02
2023-02-24T20:33:37.585Z,21.38
2023-02-24T20:36:12.373Z,23.45
2023-02-24T20:38:39.685Z,14.98
2023-02-24T20:41:07.378Z,15.80
2023-02-24T20:43:37.637Z,14.00
2023-02-24T20:46:31.583Z,12.95
2023-02-24T20:49:00.365Z,17.52
2023-02-24T20:51:28.329Z,17.75
2023-02-24T20:53:58.372Z,18.15
2023-02-24T20:56:27.241Z,20.80
2023-02-24T20:59:00.173Z,17.77
2023-02-24T21:01:28.223Z,16.48
2023-02-24T21:03:55.763Z,22.80
2023-02-24T21:06:23.543Z,17.67
2023-02-24T21:08:53.178Z,19.58
2023-02-24T21:11:21.041Z,19.92
2023-02-24T21:13:49.765Z,16.25
2023-02-24T21:16:17.789Z,17.73
2023-02-24T21:18:45.899Z,17.55
2023-02-24T21:21:15.276Z,13.65
2023-02-24T21:23:43.212Z,21.65
2023-02-24T21:26:10.738Z,20.55
2023-02-24T21:28:38.173Z,16.98
2023-02-24T21:31:09.956Z,17.65
2023-02-24T21:33:37.626Z,17.30
2023-02-24T21:36:06.752Z,16.45
2023-02-24T21:38:35.363Z,16.85
2023-02-24T21:41:07.328Z,16.75
2023-02-24T21:43:34.729Z,20.95
2023-02-24T21:46:05.977Z,22.65
2023-02-24T21:48:37.152Z,13.50
2023-02-24T21:51:05.774Z,18.55
2023-02-24T21:53:35.665Z,14.07
2023-02-24T21:56:04.401Z,18.23
2023-02-24T21:58:39.881Z,29.02
2023-02-24T22:01:14.620Z,15.15
2023-02-24T22:03:51.544Z,14.18
2023-02-24T22:06:18.833Z,21.60
2023-02-24T22:08:46.161Z,15.43
2023-02-24T22:11:17.157Z,18.30
2023-02-24T22:13:45.509Z,17.33
2023-02-24T22:16:18.270Z,18.35
2023-02-24T22:18:46.128Z,13.32
2023-02-24T22:21:17.184Z,14.00
2023-02-24T22:23:45.344Z,14.82
2023-02-24T22:26:13.041Z,20.02
2023-02-24T22:28:41.454Z,22.30
2023-02-24T22:31:09.649Z,23.88
2023-02-24T22:33:38.055Z,17.25
2023-02-24T22:36:06.463Z,16.45
2023-02-24T22:38:34.084Z,17.23
2023-02-24T22:41:02.632Z,15.90
2023-02-24T22:43:29.955Z,19.13
2023-02-24T22:46:01.272Z,20.48
2023-02-24T22:48:29.044Z,19.20
2023-02-24T22:50:57.336Z,15.15
2023-02-24T22:53:25.662Z,15.50
2023-02-24T22:55:53.325Z,17.55
2023-02-24T22:58:21.401Z,24.65
2023-02-24T23:00:48.914Z,16.67
2023-02-24T23:03:20.496Z,15.07
2023-02-24T23:06:01.972Z,15.45
2023-02-24T23:08:30.179Z,18.17
2023-02-24T23:11:03.634Z,15.02
2023-02-24T23:13:35.340Z,17.67
2023-02-24T23:16:14.198Z,17.83
2023-02-24T23:18:41.740Z,21.90
2023-02-24T23:21:10.009Z,12.65
2023-02-24T23:23:37.866Z,15.85
2023-02-24T23:26:06.160Z,15.15
2023-02-24T23:28:33.506Z,16.73
2023-02-24T23:31:00.850Z,12.25
2023-02-24T23:33:28.307Z,15.07
2023-02-24T23:35:55.697Z,9.40
2023-02-24T23:38:23.008Z,15.60
2023-02-24T23:40:51.041Z,9.70
2023-02-24T23:43:18.513Z,12.40
2023-02-24T23:45:45.911Z,10.90
2023-02-24T23:48:14.064Z,15.80
2023-02-24T23:50:42.362Z,18.95
2023-02-24T23:53:09.741Z,15.77
2023-02-24T23:55:39.220Z,13.73
2023-02-24T23:58:06.427Z,14.02
